Time;durP1;ratioP1;P1;durP2;ratioP2;P2;SDS_P1;SDS_P2;PMS_P1;PMS_P2;Temp;Humidity;BMP_temperature;BMP_pressure;BME280_temperature;BME280_humidity;BME280_pressure;Samples;Min_cycle;Max_cycle;Signal;HPM_P1;HPM_P2
2020/12/29 00:02:08;;;;;;;3.97;1.88;;;2.50;99.90;;;;;;5033270;28;20057;-67
2020/12/29 00:04:35;;;;;;;2.95;2.00;;;2.40;99.90;;;;;;5033106;28;20143;-67
2020/12/29 00:07:05;;;;;;;3.13;1.90;;;2.30;99.90;;;;;;5033393;28;20052;-67
2020/12/29 00:09:31;;;;;;;;;;;2.40;99.90;;;;;;5033448;28;20057;-69
2020/12/29 00:11:58;;;;;;;3.03;1.80;;;2.30;99.90;;;;;;5033003;28;19925;-69
2020/12/29 00:14:26;;;;;;;3.92;2.22;;;2.30;99.90;;;;;;5033078;28;20050;-67
2020/12/29 00:16:54;;;;;;;4.25;2.20;;;2.10;99.90;;;;;;5032816;28;20057;-68
2020/12/29 00:19:21;;;;;;;5.70;3.80;;;2.10;99.90;;;;;;5033027;28;20053;-68
2020/12/29 00:21:48;;;;;;;8.40;3.33;;;2.00;99.90;;;;;;5033071;28;20176;-68
2020/12/29 00:24:16;;;;;;;4.03;2.67;;;1.90;99.90;;;;;;5032066;28;20041;-68
2020/12/29 00:26:42;;;;;;;4.20;2.38;;;1.90;99.90;;;;;;5032888;28;20049;-68
2020/12/29 00:29:09;;;;;;;6.05;2.75;;;1.90;99.90;;;;;;5032949;28;20049;-67
2020/12/29 00:31:35;;;;;;;4.60;2.85;;;1.90;99.90;;;;;;5033126;28;20054;-67
2020/12/29 00:34:02;;;;;;;5.82;2.55;;;1.90;99.90;;;;;;5032670;28;20046;-67
2020/12/29 00:36:30;;;;;;;5.15;2.63;;;1.80;99.90;;;;;;5032907;28;20565;-67
2020/12/29 00:38:57;;;;;;;4.60;2.60;;;1.70;99.90;;;;;;5024771;28;20050;-67
2020/12/29 00:41:25;;;;;;;3.78;2.85;;;1.70;99.90;;;;;;5012899;28;20054;-67
2020/12/29 00:43:51;;;;;;;3.63;2.83;;;1.60;99.90;;;;;;5013129;28;20050;-67
2020/12/29 00:46:20;;;;;;;4.80;3.13;;;1.50;99.90;;;;;;5013034;28;20046;-67
2020/12/29 00:48:47;;;;;;;3.90;2.92;;;1.50;99.90;;;;;;5012645;28;20101;-67
2020/12/29 00:51:15;;;;;;;4.13;2.85;;;1.50;99.90;;;;;;5012909;28;20046;-67
2020/12/29 00:53:42;;;;;;;4.22;3.00;;;1.40;99.90;;;;;;5013121;28;20410;-67
2020/12/29 00:56:10;;;;;;;5.43;3.53;;;1.30;99.90;;;;;;5012748;28;20053;-67
2020/12/29 00:58:37;;;;;;;4.25;3.20;;;1.20;99.90;;;;;;5012565;28;20053;-67
2020/12/29 01:01:05;;;;;;;5.50;3.30;;;1.10;99.90;;;;;;5012622;28;20060;-67
2020/12/29 01:03:31;;;;;;;4.40;2.97;;;1.10;99.90;;;;;;5012635;28;20054;-67
2020/12/29 01:05:58;;;;;;;5.80;3.72;;;1.20;99.90;;;;;;5012823;28;20507;-67
2020/12/29 01:08:25;;;;;;;5.40;3.17;;;1.20;99.90;;;;;;5020241;28;20103;-67
2020/12/29 01:10:53;;;;;;;4.82;3.35;;;1.10;99.90;;;;;;5031985;28;20136;-67
2020/12/29 01:13:27;;;;;;;6.25;3.92;;;1.10;99.90;;;;;;5032449;28;20678;-67
2020/12/29 01:15:55;;;;;;;5.18;3.70;;;1.10;99.90;;;;;;5032273;28;20053;-67
2020/12/29 01:18:22;;;;;;;4.38;3.40;;;1.00;99.90;;;;;;5032243;28;20092;-67
2020/12/29 01:20:49;;;;;;;4.75;3.33;;;0.90;99.90;;;;;;5032298;28;20414;-67
2020/12/29 01:23:16;;;;;;;5.13;3.30;;;0.80;99.90;;;;;;5031620;28;20053;-67
2020/12/29 01:25:43;;;;;;;4.43;2.95;;;0.60;99.90;;;;;;5031782;28;20100;-67
2020/12/29 01:28:10;;;;;;;4.20;3.15;;;0.60;99.90;;;;;;5032045;28;20049;-67
2020/12/29 01:30:38;;;;;;;6.63;3.30;;;0.70;99.90;;;;;;5032348;28;20061;-67
2020/12/29 01:33:07;;;;;;;4.45;3.35;;;0.90;99.90;;;;;;5032138;28;20053;-67
2020/12/29 01:35:33;;;;;;;4.85;3.40;;;0.90;99.90;;;;;;5032005;28;20072;-67
2020/12/29 01:38:00;;;;;;;4.15;3.30;;;0.90;99.90;;;;;;5032257;28;20160;-67
2020/12/29 01:40:26;;;;;;;4.82;3.10;;;0.90;99.90;;;;;;5014198;28;20081;-67
2020/12/29 01:42:53;;;;;;;5.88;3.13;;;0.90;99.90;;;;;;5012624;28;20161;-67
2020/12/29 01:45:20;;;;;;;5.78;4.15;;;0.90;99.90;;;;;;5012526;28;20090;-67
2020/12/29 01:47:48;;;;;;;5.55;3.67;;;0.80;99.90;;;;;;5011994;28;20092;-67
2020/12/29 01:50:17;;;;;;;3.97;2.70;;;0.70;99.90;;;;;;5013946;28;20514;-67
2020/12/29 01:52:46;;;;;;;5.15;2.95;;;0.70;99.90;;;;;;5015957;28;20073;-67
2020/12/29 01:55:12;;;;;;;5.10;3.03;;;0.70;99.90;;;;;;5016154;28;20488;-67
2020/12/29 01:57:39;;;;;;;5.07;3.20;;;0.60;99.90;;;;;;5015746;28;20116;-67
2020/12/29 02:00:19;;;;;;;4.63;3.05;;;0.50;99.90;;;;;;5015741;28;20474;-67
2020/12/29 02:02:46;;;;;;;5.70;3.58;;;0.60;99.90;;;;;;5015727;28;20557;-67
2020/12/29 02:05:13;;;;;;;5.22;3.40;;;0.50;99.90;;;;;;5015762;28;20261;-67
2020/12/29 02:07:42;;;;;;;6.63;3.72;;;0.60;99.90;;;;;;5015673;28;20057;-67
2020/12/29 02:10:09;;;;;;;6.67;4.40;;;0.50;99.90;;;;;;5016400;28;20072;-67
2020/12/29 02:12:36;;;;;;;8.65;5.40;;;0.60;99.90;;;;;;5015806;28;20068;-67
2020/12/29 02:15:05;;;;;;;9.23;5.65;;;0.60;99.90;;;;;;5015014;28;20078;-67
2020/12/29 02:17:32;;;;;;;9.18;5.63;;;0.60;99.90;;;;;;5015103;28;20053;-67
2020/12/29 02:19:59;;;;;;;8.85;5.47;;;0.60;99.90;;;;;;5015388;28;20056;-67
2020/12/29 02:22:31;;;;;;;7.65;4.97;;;0.60;99.90;;;;;;5015228;28;20395;-67
2020/12/29 02:25:03;;;;;;;9.07;4.90;;;0.60;99.90;;;;;;5016268;28;20054;-67
2020/12/29 02:27:32;;;;;;;6.28;4.78;;;0.60;99.90;;;;;;5015136;28;20088;-67
2020/12/29 02:29:59;;;;;;;5.73;4.47;;;0.50;99.90;;;;;;5015522;28;20058;-67
2020/12/29 02:32:26;;;;;;;6.40;4.47;;;0.50;99.90;;;;;;5014977;28;20085;-67
2020/12/29 02:34:53;;;;;;;7.03;4.65;;;0.50;99.90;;;;;;5016515;28;20041;-67
2020/12/29 02:37:20;;;;;;;8.15;4.38;;;0.40;99.90;;;;;;5034194;28;20041;-67
2020/12/29 02:39:52;;;;;;;8.43;4.47;;;0.50;99.90;;;;;;5034594;28;20045;-67
2020/12/29 02:42:19;;;;;;;6.05;4.05;;;0.30;99.90;;;;;;5035059;28;20057;-67
2020/12/29 02:44:46;;;;;;;5.72;4.25;;;0.30;99.90;;;;;;5034598;28;20046;-67
2020/12/29 02:47:12;;;;;;;7.88;4.68;;;0.00;99.90;;;;;;5034511;28;20064;-67
2020/12/29 02:49:39;;;;;;;6.28;4.00;;;-0.10;99.90;;;;;;5034295;28;20060;-67
2020/12/29 02:52:07;;;;;;;6.88;4.00;;;-0.10;99.90;;;;;;5034334;28;20091;-67
2020/12/29 02:54:33;;;;;;;7.43;4.28;;;0.00;99.90;;;;;;5034866;28;20113;-66
2020/12/29 02:57:01;;;;;;;6.53;4.07;;;0.20;99.90;;;;;;5034609;28;20510;-66
2020/12/29 02:59:27;;;;;;;6.82;4.68;;;0.30;99.90;;;;;;5034996;28;20482;-66
2020/12/29 03:01:54;;;;;;;6.38;4.07;;;0.40;99.90;;;;;;5033984;28;20491;-66
2020/12/29 03:04:20;;;;;;;6.55;4.18;;;0.50;99.90;;;;;;5034364;28;20392;-66
2020/12/29 03:06:47;;;;;;;6.63;3.78;;;0.60;99.90;;;;;;5033508;28;20050;-66
2020/12/29 03:09:14;;;;;;;6.60;3.45;;;0.70;99.90;;;;;;5034439;28;20425;-66
2020/12/29 03:11:41;;;;;;;5.75;3.30;;;0.90;99.90;;;;;;5034209;28;20080;-66
2020/12/29 03:14:09;;;;;;;5.50;3.30;;;0.90;99.90;;;;;;5034225;28;20057;-66
2020/12/29 03:16:36;;;;;;;3.65;2.70;;;1.00;99.90;;;;;;5034024;28;20053;-66
2020/12/29 03:19:03;;;;;;;4.53;3.10;;;0.70;99.90;;;;;;5034096;28;20049;-66
2020/12/29 03:21:30;;;;;;;4.85;3.20;;;0.90;99.90;;;;;;5033697;28;20064;-66
2020/12/29 03:23:57;;;;;;;5.90;3.47;;;1.10;99.90;;;;;;5033424;28;20081;-66
2020/12/29 03:26:25;;;;;;;5.10;3.30;;;1.10;99.90;;;;;;5033509;28;20529;-66
2020/12/29 03:28:53;;;;;;;5.72;3.15;;;1.40;99.90;;;;;;5034612;28;20148;-66
2020/12/29 03:31:21;;;;;;;6.13;3.28;;;1.50;99.90;;;;;;5033917;28;20092;-66
2020/12/29 03:33:47;;;;;;;4.10;3.00;;;1.70;99.90;;;;;;5027709;28;20089;-66
2020/12/29 03:36:14;;;;;;;4.63;2.72;;;1.70;99.90;;;;;;5026248;28;20045;-66
2020/12/29 03:38:41;;;;;;;3.95;2.90;;;1.70;99.90;;;;;;5033462;28;20068;-66
2020/12/29 03:41:07;;;;;;;4.40;2.92;;;1.80;99.90;;;;;;5033607;28;20072;-66
2020/12/29 03:43:34;;;;;;;3.55;2.85;;;1.90;99.90;;;;;;5033844;28;20053;-66
2020/12/29 03:46:00;;;;;;;3.72;2.80;;;1.90;99.90;;;;;;5033444;28;20077;-67
2020/12/29 03:48:28;;;;;;;4.93;2.95;;;2.00;99.90;;;;;;5032499;28;20544;-67
2020/12/29 03:50:55;;;;;;;5.63;3.67;;;1.90;99.90;;;;;;5033875;28;20053;-67
2020/12/29 03:53:22;;;;;;;4.57;3.33;;;2.00;99.90;;;;;;5032720;28;20081;-67
2020/12/29 03:55:48;;;;;;;5.15;3.60;;;2.10;99.90;;;;;;5033232;28;20056;-67
2020/12/29 03:58:15;;;;;;;4.35;3.10;;;2.10;99.90;;;;;;5033034;28;20045;-67
2020/12/29 04:00:42;;;;;;;3.65;2.78;;;1.90;99.90;;;;;;5033420;28;20049;-67
2020/12/29 04:03:08;;;;;;;4.85;3.50;;;2.00;99.90;;;;;;5033216;28;20057;-67
2020/12/29 04:05:36;;;;;;;9.32;5.70;;;2.20;99.90;;;;;;5033106;28;20418;-67
2020/12/29 04:08:02;;;;;;;7.95;5.43;;;2.00;99.90;;;;;;5032632;28;20091;-67
2020/12/29 04:10:29;;;;;;;10.85;5.45;;;2.00;99.90;;;;;;5033157;28;20098;-67
2020/12/29 04:12:56;;;;;;;8.73;6.68;;;2.00;99.90;;;;;;5032296;28;20045;-67
2020/12/29 04:15:22;;;;;;;12.30;7.88;;;2.10;99.90;;;;;;5032950;28;20045;-67
2020/12/29 04:17:49;;;;;;;12.93;7.75;;;2.10;99.90;;;;;;5032950;28;20123;-67
2020/12/29 04:20:16;;;;;;;13.00;7.40;;;1.90;99.90;;;;;;5013914;28;20533;-67
2020/12/29 04:22:43;;;;;;;9.73;6.72;;;2.10;99.90;;;;;;5013478;28;20066;-66
2020/12/29 04:25:11;;;;;;;7.70;4.38;;;2.00;99.90;;;;;;5027619;28;20046;-66
2020/12/29 04:27:41;;;;;;;5.55;3.60;;;2.10;99.90;;;;;;5013922;28;20108;-67
2020/12/29 04:30:10;;;;;;;4.35;3.22;;;2.20;99.90;;;;;;5013151;28;20452;-67
2020/12/29 04:32:37;;;;;;;3.88;3.00;;;2.20;99.90;;;;;;5012936;28;20089;-67
2020/12/29 04:35:04;;;;;;;5.13;3.45;;;2.30;99.90;;;;;;5015982;28;20042;-67
2020/12/29 04:37:31;;;;;;;4.85;3.30;;;2.10;99.90;;;;;;5032666;28;20111;-67
2020/12/29 04:39:58;;;;;;;5.72;3.58;;;2.10;99.90;;;;;;5032814;28;20411;-67
2020/12/29 04:42:25;;;;;;;4.85;3.63;;;2.20;99.90;;;;;;5013635;28;20092;-67
2020/12/29 04:44:52;;;;;;;5.72;3.55;;;2.00;99.90;;;;;;5012868;28;20470;-67
2020/12/29 04:47:19;;;;;;;4.57;3.33;;;2.10;99.90;;;;;;5012747;28;20076;-67
2020/12/29 04:49:46;;;;;;;5.45;3.50;;;2.10;99.90;;;;;;5012792;28;20454;-67
2020/12/29 04:52:13;;;;;;;4.95;3.28;;;2.30;99.90;;;;;;5013063;28;20054;-67
2020/12/29 04:54:41;;;;;;;6.85;4.53;;;2.30;99.90;;;;;;5013401;28;20111;-67
2020/12/29 04:57:10;;;;;;;5.22;3.53;;;2.40;99.90;;;;;;5012715;28;20050;-67
2020/12/29 04:59:37;;;;;;;4.72;3.58;;;2.50;99.90;;;;;;5013015;28;20081;-67
2020/12/29 05:02:05;;;;;;;11.02;6.15;;;2.50;99.90;;;;;;5013104;28;20061;-67
2020/12/29 05:04:31;;;;;;;6.50;4.88;;;2.50;99.90;;;;;;5012869;28;20060;-67
2020/12/29 05:06:59;;;;;;;6.25;4.18;;;2.40;99.90;;;;;;5013215;28;20054;-66
2020/12/29 05:09:27;;;;;;;7.05;4.30;;;2.50;99.90;;;;;;5012666;28;20050;-66
2020/12/29 05:11:54;;;;;;;6.55;4.00;;;2.30;99.90;;;;;;5012844;28;20050;-67
2020/12/29 05:14:22;;;;;;;6.68;4.03;;;2.20;99.90;;;;;;5012743;28;20084;-67
2020/12/29 05:16:50;;;;;;;6.25;4.05;;;2.20;99.90;;;;;;5013028;28;20092;-67
2020/12/29 05:19:20;;;;;;;5.63;3.60;;;2.30;99.90;;;;;;5012652;28;20482;-67
2020/12/29 05:21:47;;;;;;;5.40;4.05;;;2.30;99.90;;;;;;5012715;28;20415;-67
2020/12/29 05:24:14;;;;;;;6.40;4.10;;;2.50;99.90;;;;;;5013966;28;20088;-67
2020/12/29 05:26:43;;;;;;;4.22;3.63;;;2.40;99.90;;;;;;5027245;28;20099;-67
2020/12/29 05:29:12;;;;;;;4.35;3.47;;;2.60;99.90;;;;;;5035957;28;20056;-67
2020/12/29 05:31:40;;;;;;;5.22;3.25;;;2.50;99.90;;;;;;5035796;28;20053;-67
2020/12/29 05:34:17;;;;;;;4.97;3.55;;;2.40;99.90;;;;;;5035850;28;20088;-67
2020/12/29 05:36:44;;;;;;;5.47;3.10;;;2.50;99.90;;;;;;5035725;28;20132;-67
2020/12/29 05:39:11;;;;;;;5.35;3.30;;;2.50;99.90;;;;;;5036034;28;20424;-67
2020/12/29 05:41:40;;;;;;;4.85;3.20;;;2.50;99.90;;;;;;5035299;28;20084;-66
2020/12/29 05:44:08;;;;;;;4.85;3.80;;;2.30;99.90;;;;;;5035743;28;20057;-66
2020/12/29 05:46:36;;;;;;;4.75;3.28;;;2.40;99.90;;;;;;5035761;28;20490;-66
2020/12/29 05:49:04;;;;;;;6.05;3.60;;;2.70;99.90;;;;;;5035490;28;20049;-67
2020/12/29 05:51:33;;;;;;;5.85;4.03;;;2.70;99.90;;;;;;5035416;28;20091;-67
2020/12/29 05:54:01;;;;;;;5.43;3.63;;;2.70;99.90;;;;;;5035052;28;20052;-67
2020/12/29 05:56:33;;;;;;;4.55;3.33;;;2.80;99.90;;;;;;5035447;28;20486;-66
2020/12/29 05:59:02;;;;;;;5.22;4.10;;;3.00;99.90;;;;;;5035491;28;20049;-67
2020/12/29 06:01:45;;;;;;;4.88;3.67;;;3.00;99.90;;;;;;5035464;28;20085;-66
2020/12/29 06:04:12;;;;;;;6.38;3.65;;;2.80;99.90;;;;;;5034104;28;20485;-67
2020/12/29 06:06:40;;;;;;;4.63;3.40;;;2.80;99.90;;;;;;5035253;28;20049;-67
2020/12/29 06:09:08;;;;;;;4.28;3.40;;;2.70;99.90;;;;;;5035186;28;20081;-66
2020/12/29 06:11:54;;;;;;;4.85;3.45;;;2.80;99.90;;;;;;5035445;28;20410;-67
2020/12/29 06:14:23;;;;;;;5.45;3.70;;;3.00;99.90;;;;;;5035335;28;20053;-67
2020/12/29 06:16:50;;;;;;;4.47;3.28;;;2.90;99.90;;;;;;5035148;28;20061;-67
2020/12/29 06:19:27;;;;;;;5.38;3.35;;;2.90;99.90;;;;;;5035150;28;20372;-67
2020/12/29 06:22:04;;;;;;;5.85;3.75;;;2.70;99.90;;;;;;5035086;28;20152;-67
2020/12/29 06:24:32;;;;;;;4.70;3.50;;;2.70;99.90;;;;;;5034348;28;20095;-67
2020/12/29 06:27:00;;;;;;;6.60;3.83;;;2.80;99.90;;;;;;5035160;28;20148;-67
2020/12/29 06:29:32;;;;;;;5.63;3.97;;;2.70;99.90;;;;;;5035130;28;20081;-67
2020/12/29 06:32:04;;;;;;;5.72;3.58;;;2.90;99.90;;;;;;5034949;28;20471;-67
2020/12/29 06:34:35;;;;;;;5.60;3.75;;;3.00;99.90;;;;;;5034884;28;20487;-67
2020/12/29 06:37:21;;;;;;;4.95;3.67;;;3.00;99.90;;;;;;5033736;28;20057;-67
2020/12/29 06:39:49;;;;;;;5.32;3.83;;;2.70;99.90;;;;;;5034991;28;20085;-67
2020/12/29 06:42:18;;;;;;;4.93;3.50;;;2.50;99.90;;;;;;5034539;28;20488;-67
2020/12/29 06:44:45;;;;;;;5.00;3.78;;;2.50;99.90;;;;;;5034682;28;20045;-67
2020/12/29 06:47:12;;;;;;;5.35;3.58;;;2.60;99.90;;;;;;5033821;28;20041;-67
2020/12/29 06:49:46;;;;;;;5.07;3.95;;;2.70;99.90;;;;;;5033706;28;20111;-67
2020/12/29 06:52:32;;;;;;;6.63;3.85;;;2.90;99.90;;;;;;5028488;28;20172;-67
2020/12/29 06:55:00;;;;;;;5.10;4.00;;;2.90;99.90;;;;;;5034552;28;20050;-67
2020/12/29 06:57:47;;;;;;;5.65;3.95;;;3.00;99.90;;;;;;5030472;28;20522;-67
2020/12/29 07:00:21;;;;;;;5.97;4.47;;;2.90;99.90;;;;;;5034206;28;20049;-66
2020/12/29 07:02:49;;;;;;;5.90;4.60;;;2.70;99.90;;;;;;5034232;28;20495;-66
2020/12/29 07:05:18;;;;;;;6.68;5.03;;;2.70;99.90;;;;;;5033635;28;20463;-67
2020/12/29 07:07:52;;;;;;;6.70;4.93;;;2.50;99.90;;;;;;5034122;28;20049;-67
2020/12/29 07:10:21;;;;;;;6.47;4.40;;;2.30;99.90;;;;;;5033646;28;20430;-67
2020/12/29 07:12:50;;;;;;;5.80;4.22;;;2.10;99.90;;;;;;5033891;28;20133;-66
2020/12/29 07:15:19;;;;;;;7.60;4.57;;;2.00;99.90;;;;;;5018535;28;20443;-66
2020/12/29 07:18:00;;;;;;;8.38;5.07;;;1.90;99.90;;;;;;5016022;28;20057;-66
2020/12/29 07:20:31;;;;;;;7.45;4.80;;;1.70;99.90;;;;;;5011772;28;20519;-66
2020/12/29 07:23:03;;;;;;;7.70;5.95;;;1.60;99.90;;;;;;5011636;28;20054;-66
2020/12/29 07:25:31;;;;;;;8.10;5.18;;;1.60;99.90;;;;;;5012593;28;20056;-66
2020/12/29 07:28:03;;;;;;;9.55;5.30;;;1.50;99.90;;;;;;5012454;28;20411;-66
2020/12/29 07:30:31;;;;;;;10.00;5.72;;;1.60;99.90;;;;;;5014572;28;20046;-66
2020/12/29 07:32:59;;;;;;;10.48;6.10;;;1.50;99.90;;;;;;5015335;28;20129;-66
2020/12/29 07:35:29;;;;;;;7.93;5.47;;;1.50;99.90;;;;;;5029337;28;20053;-66
2020/12/29 07:37:57;;;;;;;8.75;5.45;;;1.60;99.90;;;;;;5025356;28;20061;-66
2020/12/29 07:40:25;;;;;;;10.77;5.85;;;1.50;99.90;;;;;;5026278;28;20053;-66
2020/12/29 07:42:52;;;;;;;8.07;5.88;;;1.30;99.90;;;;;;5026020;28;20435;-66
2020/12/29 07:45:21;;;;;;;9.35;5.40;;;1.30;99.90;;;;;;5025903;28;20045;-66
2020/12/29 07:47:47;;;;;;;8.07;5.65;;;1.40;99.90;;;;;;5019927;28;20487;-66
2020/12/29 07:50:14;;;;;;;12.13;6.63;;;1.40;99.90;;;;;;5030066;28;20470;-66
2020/12/29 07:52:41;;;;;;;8.40;5.72;;;1.40;99.90;;;;;;5030028;28;20473;-66
2020/12/29 07:55:10;;;;;;;8.13;5.40;;;1.60;99.90;;;;;;5031414;28;20057;-66
2020/12/29 07:57:37;;;;;;;8.77;5.30;;;1.60;99.90;;;;;;5031132;28;20073;-66
2020/12/29 08:00:15;;;;;;;7.80;5.13;;;1.80;99.90;;;;;;5021369;28;20440;-66
2020/12/29 08:02:49;;;;;;;8.13;4.93;;;2.00;99.90;;;;;;5030021;28;20049;-66
2020/12/29 08:05:16;;;;;;;9.18;5.95;;;2.10;99.90;;;;;;5033082;28;20521;-66
2020/12/29 08:07:43;;;;;;;9.50;6.25;;;2.40;99.90;;;;;;5028514;28;20085;-66
2020/12/29 08:10:10;;;;;;;9.18;5.97;;;2.60;99.90;;;;;;5032191;28;20056;-66
2020/12/29 08:12:36;;;;;;;7.88;5.93;;;2.70;99.90;;;;;;5030789;28;20103;-66
2020/12/29 08:15:03;;;;;;;8.57;6.47;;;2.70;99.90;;;;;;5030545;28;20084;-66
2020/12/29 08:17:30;;;;;;;8.70;6.57;;;2.90;99.90;;;;;;5030056;28;20045;-66
2020/12/29 08:19:58;;;;;;;8.02;6.30;;;2.80;99.90;;;;;;5028189;28;20049;-66
2020/12/29 08:22:28;;;;;;;11.02;7.43;;;2.90;99.90;;;;;;5031131;28;20085;-66
2020/12/29 08:24:55;;;;;;;;;;;3.10;99.90;;;;;;5032590;28;20060;-67
2020/12/29 08:27:22;;;;;;;11.32;8.18;;;3.40;99.90;;;;;;5032286;28;19921;-67
2020/12/29 08:29:49;;;;;;;13.45;9.25;;;3.80;99.90;;;;;;5030721;28;20049;-67
2020/12/29 08:32:21;;;;;;;10.25;7.72;;;4.10;99.90;;;;;;5027332;28;20081;-67
2020/12/29 08:34:48;;;;;;;9.05;7.10;;;4.40;99.90;;;;;;5023009;28;20475;-67
2020/12/29 08:37:22;;;;;;;9.95;7.25;;;4.60;99.90;;;;;;5028062;28;20418;-66
2020/12/29 08:39:57;;;;;;;9.45;7.15;;;4.60;99.90;;;;;;5030916;28;20061;-66
2020/12/29 08:42:26;;;;;;;14.32;7.68;;;4.70;99.90;;;;;;5029214;28;20060;-67
2020/12/29 08:44:56;;;;;;;10.40;7.78;;;4.70;99.90;;;;;;5030636;28;20045;-67
2020/12/29 08:47:31;;;;;;;10.60;7.82;;;4.70;99.90;;;;;;5030696;28;20554;-67
2020/12/29 08:49:58;;;;;;;10.98;7.70;;;4.70;99.90;;;;;;5031485;28;20100;-67
2020/12/29 08:52:31;;;;;;;12.15;8.73;;;4.70;99.90;;;;;;5020941;28;20076;-66
2020/12/29 08:54:59;;;;;;;12.15;9.23;;;4.90;99.90;;;;;;5027525;28;20189;-67
2020/12/29 08:57:27;;;;;;;13.02;10.25;;;5.10;99.90;;;;;;5030380;28;20049;-67
2020/12/29 08:59:54;;;;;;;12.07;9.18;;;5.30;99.90;;;;;;5031808;28;20076;-67
2020/12/29 09:02:29;;;;;;;9.48;7.63;;;5.60;99.90;;;;;;5036570;28;20088;-67
2020/12/29 09:05:04;;;;;;;8.25;6.15;;;7.20;99.90;;;;;;5035716;28;20041;-66
2020/12/29 09:07:41;;;;;;;9.00;6.68;;;9.30;99.90;;;;;;5033066;28;20057;-66
2020/12/29 09:10:09;;;;;;;8.48;6.20;;;10.90;94.40;;;;;;5033666;28;20179;-66
2020/12/29 09:12:36;;;;;;;11.07;7.32;;;12.30;88.70;;;;;;5035144;28;20533;-66
2020/12/29 09:15:05;;;;;;;8.95;6.13;;;12.70;85.60;;;;;;5034489;28;20524;-67
2020/12/29 09:17:33;;;;;;;11.97;6.83;;;12.40;83.70;;;;;;5035946;28;20407;-67
2020/12/29 09:20:17;;;;;;;9.70;7.80;;;11.30;85.30;;;;;;5034667;28;20594;-67
2020/12/29 09:22:51;;;;;;;10.95;7.35;;;9.90;89.60;;;;;;5021358;28;20141;-67
2020/12/29 09:25:29;;;;;;;11.63;7.70;;;9.10;91.40;;;;;;5034241;28;20487;-67
2020/12/29 09:28:16;;;;;;;12.15;7.80;;;8.20;94.10;;;;;;5032868;28;20430;-67
2020/12/29 09:30:45;;;;;;;9.77;6.80;;;7.30;95.90;;;;;;5035122;28;20041;-67
2020/12/29 09:33:12;;;;;;;10.25;7.53;;;7.10;97.00;;;;;;5035219;28;20093;-66
2020/12/29 09:35:39;;;;;;;10.30;7.10;;;7.00;97.80;;;;;;5027901;28;20144;-66
2020/12/29 09:38:06;;;;;;;10.70;7.68;;;6.60;98.40;;;;;;5016510;28;20466;-67
2020/12/29 09:40:33;;;;;;;10.82;6.70;;;6.40;99.90;;;;;;5016301;28;20426;-66
2020/12/29 09:43:00;;;;;;;8.93;7.57;;;6.10;99.90;;;;;;5016075;28;20060;-66
2020/12/29 09:45:26;;;;;;;11.95;7.38;;;6.30;99.90;;;;;;5021770;28;20041;-66
2020/12/29 09:47:53;;;;;;;9.15;7.07;;;5.90;99.90;;;;;;5036046;28;20049;-66
2020/12/29 09:50:20;;;;;;;13.23;7.60;;;6.10;99.90;;;;;;5035440;28;20096;-66
2020/12/29 09:52:47;;;;;;;10.90;7.63;;;6.20;99.90;;;;;;5035814;28;20151;-66
2020/12/29 09:55:13;;;;;;;11.00;6.82;;;6.00;99.90;;;;;;5035708;28;20050;-66
2020/12/29 09:57:41;;;;;;;8.90;6.25;;;6.10;99.90;;;;;;5032545;28;20064;-66
2020/12/29 10:00:08;;;;;;;10.77;6.75;;;6.00;99.90;;;;;;5016080;28;20442;-66
2020/12/29 10:02:35;;;;;;;10.27;6.25;;;6.00;99.90;;;;;;5015576;28;20088;-66
2020/12/29 10:05:01;;;;;;;9.07;6.35;;;6.10;99.90;;;;;;5032717;28;20061;-66
2020/12/29 10:07:28;;;;;;;8.63;5.85;;;6.10;99.90;;;;;;5034629;28;20418;-66
2020/12/29 10:09:55;;;;;;;11.30;5.93;;;6.20;99.90;;;;;;5031537;28;20457;-66
2020/12/29 10:12:22;;;;;;;7.65;4.75;;;6.10;99.90;;;;;;5033892;28;20135;-66
2020/12/29 10:14:49;;;;;;;9.30;5.78;;;5.80;99.90;;;;;;5033325;28;20076;-66
2020/12/29 10:17:16;;;;;;;7.72;5.38;;;5.90;99.90;;;;;;5032556;28;20131;-66
2020/12/29 10:19:42;;;;;;;9.63;5.53;;;5.90;99.90;;;;;;5033917;28;20054;-66
2020/12/29 10:22:09;;;;;;;7.90;5.13;;;5.70;99.90;;;;;;5035157;28;20065;-66
2020/12/29 10:24:35;;;;;;;11.20;5.65;;;5.50;99.90;;;;;;5032400;28;20099;-66
2020/12/29 10:27:02;;;;;;;6.05;4.40;;;5.60;99.90;;;;;;5030044;28;20173;-67
2020/12/29 10:29:28;;;;;;;8.48;5.07;;;5.50;99.90;;;;;;5031464;28;20057;-66
2020/12/29 10:31:56;;;;;;;7.63;5.18;;;5.50;99.90;;;;;;5032761;28;20060;-66
2020/12/29 10:34:23;;;;;;;7.70;5.22;;;5.60;99.90;;;;;;5032819;28;20050;-66
2020/12/29 10:36:49;;;;;;;9.18;5.72;;;5.50;99.90;;;;;;5034050;28;20053;-66
2020/12/29 10:39:16;;;;;;;7.72;5.00;;;5.50;99.90;;;;;;5032655;28;20057;-66
2020/12/29 10:41:43;;;;;;;8.00;4.70;;;5.40;99.90;;;;;;5033520;28;20391;-66
2020/12/29 10:44:10;;;;;;;8.95;5.72;;;5.30;99.90;;;;;;5025142;28;20050;-66
2020/12/29 10:46:37;;;;;;;13.50;7.63;;;5.30;99.90;;;;;;5023515;28;20080;-66
2020/12/29 10:49:08;;;;;;;9.38;5.78;;;5.40;99.90;;;;;;5024761;28;20057;-66
2020/12/29 10:51:34;;;;;;;10.25;5.70;;;5.40;99.90;;;;;;5017791;28;20508;-66
2020/12/29 10:54:01;;;;;;;9.10;6.20;;;5.30;99.90;;;;;;5031156;28;20076;-66
2020/12/29 10:56:28;;;;;;;8.50;6.10;;;5.20;99.90;;;;;;5032313;28;20100;-67
2020/12/29 10:58:54;;;;;;;8.98;5.68;;;5.30;99.90;;;;;;5033229;28;20050;-67
2020/12/29 11:01:22;;;;;;;11.93;6.63;;;5.10;99.90;;;;;;5033732;28;20045;-67
2020/12/29 11:03:49;;;;;;;12.38;7.22;;;5.10;99.90;;;;;;5033470;28;20088;-67
2020/12/29 11:06:18;;;;;;;12.77;9.35;;;5.00;99.90;;;;;;5029780;28;20180;-66
2020/12/29 11:08:45;;;;;;;14.15;9.07;;;4.90;99.90;;;;;;5028510;28;20041;-66
2020/12/29 11:11:12;;;;;;;15.35;10.75;;;5.00;99.90;;;;;;5034561;28;20457;-66
2020/12/29 11:13:39;;;;;;;17.67;11.80;;;4.80;99.90;;;;;;5032872;28;20511;-66
2020/12/29 11:16:05;;;;;;;16.25;10.40;;;4.70;99.90;;;;;;5033553;28;20147;-66
2020/12/29 11:18:32;;;;;;;18.50;13.02;;;4.70;99.90;;;;;;5033467;28;20068;-66
2020/12/29 11:20:59;;;;;;;19.83;13.02;;;4.60;99.90;;;;;;5028406;28;20050;-66
2020/12/29 11:23:28;;;;;;;17.38;12.20;;;4.50;99.90;;;;;;5031777;28;20145;-67
2020/12/29 11:25:58;;;;;;;19.13;13.52;;;4.70;99.90;;;;;;5021093;28;20052;-67
2020/12/29 11:28:24;;;;;;;;;;;4.80;99.90;;;;;;5034466;28;20092;-67
2020/12/29 11:30:51;;;;;;;20.60;13.02;;;4.70;99.90;;;;;;5033714;28;19979;-67
2020/12/29 11:33:17;;;;;;;18.63;13.05;;;4.70;99.90;;;;;;5033561;28;20084;-67
2020/12/29 11:35:44;;;;;;;21.30;11.38;;;4.70;99.90;;;;;;5033785;28;20052;-67
2020/12/29 11:38:11;;;;;;;14.90;10.15;;;4.70;99.90;;;;;;5032357;28;20054;-67
2020/12/29 11:40:41;;;;;;;20.15;13.00;;;4.50;99.90;;;;;;5014055;28;20108;-67
2020/12/29 11:43:07;;;;;;;17.58;10.98;;;4.50;99.90;;;;;;5014059;28;20132;-67
2020/12/29 11:45:35;;;;;;;20.00;14.07;;;4.50;99.90;;;;;;5013983;28;20092;-67
2020/12/29 11:48:01;;;;;;;19.75;13.95;;;4.50;99.90;;;;;;5015115;28;20364;-67
2020/12/29 11:50:28;;;;;;;20.13;14.63;;;4.50;99.90;;;;;;5015931;28;20050;-67
2020/12/29 11:52:54;;;;;;;22.55;14.70;;;4.50;99.90;;;;;;5033620;28;20573;-67
2020/12/29 11:55:23;;;;;;;20.35;12.00;;;4.60;99.90;;;;;;5033663;28;20089;-67
2020/12/29 11:57:51;;;;;;;21.77;13.25;;;4.50;99.90;;;;;;5033416;28;20049;-67
2020/12/29 12:00:17;;;;;;;23.85;14.00;;;4.50;99.90;;;;;;5033208;28;20510;-67
2020/12/29 12:02:44;;;;;;;20.42;14.65;;;4.40;99.90;;;;;;5032797;28;20081;-67
2020/12/29 12:05:12;;;;;;;24.60;15.50;;;4.50;99.90;;;;;;5033204;28;20087;-67
2020/12/29 12:07:41;;;;;;;20.20;13.02;;;4.60;99.90;;;;;;5032450;28;20656;-67
2020/12/29 12:10:09;;;;;;;17.90;13.85;;;4.50;99.90;;;;;;5032997;28;20053;-67
2020/12/29 12:12:36;;;;;;;20.45;14.27;;;4.50;99.90;;;;;;5032993;28;20077;-67
2020/12/29 12:15:04;;;;;;;26.10;15.38;;;4.50;99.90;;;;;;5033033;28;20053;-67
2020/12/29 12:17:31;;;;;;;19.60;13.48;;;4.60;99.90;;;;;;5032820;28;20053;-67
2020/12/29 12:19:57;;;;;;;22.08;14.65;;;4.60;99.90;;;;;;5032432;28;20085;-67
2020/12/29 12:22:24;;;;;;;25.77;14.13;;;4.60;99.90;;;;;;5021426;28;20092;-67
2020/12/29 12:24:50;;;;;;;20.00;13.73;;;4.60;99.90;;;;;;5032317;28;20072;-67
2020/12/29 12:27:17;;;;;;;17.13;11.88;;;4.70;99.90;;;;;;5032893;28;20107;-67
2020/12/29 12:29:44;;;;;;;19.17;12.40;;;4.70;99.90;;;;;;5033320;28;20470;-67
2020/12/29 12:32:11;;;;;;;16.40;12.02;;;4.70;99.90;;;;;;5032613;28;20438;-67
2020/12/29 12:34:38;;;;;;;18.45;10.52;;;4.60;99.90;;;;;;5032072;28;20479;-67
2020/12/29 12:37:04;;;;;;;17.33;12.18;;;4.60;99.90;;;;;;5032720;28;20061;-67
2020/12/29 12:39:31;;;;;;;17.50;11.75;;;4.70;99.90;;;;;;5031986;28;20056;-67
2020/12/29 12:41:58;;;;;;;17.73;11.98;;;4.60;99.90;;;;;;5032695;28;20107;-67
2020/12/29 12:44:24;;;;;;;20.45;12.88;;;4.60;99.90;;;;;;5032867;28;20059;-67
2020/12/29 12:46:51;;;;;;;20.38;12.35;;;4.60;99.90;;;;;;5029299;28;20069;-67
2020/12/29 12:49:18;;;;;;;15.63;10.38;;;4.70;99.90;;;;;;5028874;28;20065;-67
2020/12/29 12:51:47;;;;;;;19.10;13.35;;;4.70;99.90;;;;;;5024452;28;20191;-67
2020/12/29 12:54:14;;;;;;;19.23;13.35;;;4.70;99.90;;;;;;5031403;28;20046;-67
2020/12/29 12:56:42;;;;;;;20.35;13.30;;;4.80;99.90;;;;;;5031070;28;20041;-67
2020/12/29 12:59:10;;;;;;;21.48;12.73;;;4.90;99.90;;;;;;5032532;28;20398;-67